createdAt,value
2019-05-03T00:02:19.469Z,9.37
2019-05-03T00:04:51.595Z,9.30
2019-05-03T00:07:19.557Z,10.83
2019-05-03T00:09:47.855Z,11.17
2019-05-03T00:12:16.238Z,11.87
2019-05-03T00:14:46.169Z,11.80
2019-05-03T00:17:14.550Z,12.37
2019-05-03T00:19:42.839Z,12.83
2019-05-03T00:22:12.388Z,12.83
2019-05-03T00:24:42.552Z,14.30
2019-05-03T00:27:12.598Z,14.37
2019-05-03T00:29:41.823Z,14.53
2019-05-03T00:32:12.298Z,15.10
2019-05-03T00:34:46.442Z,14.83
2019-05-03T00:37:19.178Z,14.87
2019-05-03T00:39:52.382Z,15.57
2019-05-03T00:42:22.518Z,16.40
2019-05-03T00:44:51.672Z,16.33
2019-05-03T00:47:22.059Z,17.73
2019-05-03T00:49:51.734Z,17.90
2019-05-03T00:52:22.242Z,18.13
2019-05-03T00:54:50.191Z,19.40
2019-05-03T00:57:18.487Z,20.10
2019-05-03T00:59:46.778Z,20.47
2019-05-03T01:02:15.385Z,21.00
2019-05-03T01:04:43.696Z,19.77
2019-05-03T01:07:11.973Z,20.93
2019-05-03T01:09:42.294Z,21.10
2019-05-03T01:12:12.459Z,19.07
2019-05-03T01:14:42.219Z,20.20
2019-05-03T01:17:11.754Z,19.67
2019-05-03T01:19:40.143Z,20.10
2019-05-03T01:22:08.445Z,20.67
2019-05-03T01:24:36.743Z,22.53
2019-05-03T01:27:05.098Z,21.23
2019-05-03T01:29:33.400Z,23.73
2019-05-03T01:32:02.319Z,22.83
2019-05-03T01:34:32.424Z,24.60
2019-05-03T01:37:02.425Z,24.60
2019-05-03T01:39:31.662Z,23.90
2019-05-03T01:42:00.077Z,23.37
2019-05-03T01:44:28.363Z,25.13
2019-05-03T01:46:58.308Z,25.27
2019-05-03T01:49:42.577Z,24.90
2019-05-03T01:52:17.758Z,26.93
2019-05-03T01:54:46.045Z,26.33
2019-05-03T01:57:14.372Z,25.77
2019-05-03T01:59:42.721Z,27.33
2019-05-03T02:02:28.754Z,26.07
2019-05-03T02:05:07.463Z,26.53
2019-05-03T02:07:35.766Z,26.80
2019-05-03T02:10:06.458Z,28.13
2019-05-03T02:12:34.743Z,27.90
2019-05-03T02:15:03.288Z,27.13
2019-05-03T02:17:31.867Z,26.70
2019-05-03T02:20:02.184Z,28.03
2019-05-03T02:22:31.922Z,28.60
2019-05-03T02:25:01.763Z,27.83
2019-05-03T02:27:30.165Z,28.60
2019-05-03T02:29:58.499Z,27.97
2019-05-03T02:32:26.799Z,29.27
2019-05-03T02:34:55.108Z,28.33
2019-05-03T02:37:23.396Z,29.40
2019-05-03T02:39:54.940Z,30.57
2019-05-03T02:42:26.291Z,27.93
2019-05-03T02:44:55.372Z,29.93
2019-05-03T02:47:26.494Z,28.93
2019-05-03T02:49:56.591Z,29.07
2019-05-03T02:52:37.657Z,30.07
2019-05-03T02:55:10.980Z,28.53
2019-05-03T02:57:39.289Z,30.20
2019-05-03T03:00:09.523Z,27.40
2019-05-03T03:02:38.154Z,27.03
2019-05-03T03:05:06.804Z,29.03
2019-05-03T03:07:37.688Z,28.10
2019-05-03T03:10:07.138Z,27.40
2019-05-03T03:12:35.769Z,26.27
2019-05-03T03:15:06.274Z,27.63
2019-05-03T03:17:36.422Z,26.73
2019-05-03T03:20:06.899Z,24.57
2019-05-03T03:22:38.384Z,22.73
2019-05-03T03:25:08.464Z,23.40
2019-05-03T03:27:40.236Z,18.50
2019-05-03T03:30:30.715Z,18.77
2019-05-03T03:33:00.423Z,14.07
2019-05-03T03:35:31.153Z,13.30
2019-05-03T03:37:59.701Z,11.20
2019-05-03T03:40:30.121Z,12.30
2019-05-03T03:42:59.581Z,10.77
2019-05-03T03:45:28.037Z,10.80
2019-05-03T03:47:57.513Z,10.87
2019-05-03T03:50:26.800Z,11.97
2019-05-03T03:52:56.901Z,11.97
2019-05-03T03:55:26.368Z,11.87
2019-05-03T03:57:55.710Z,10.60
2019-05-03T04:00:25.880Z,11.97
2019-05-03T04:02:55.264Z,12.40
2019-05-03T04:05:25.399Z,11.93
2019-05-03T04:07:56.039Z,12.40
2019-05-03T04:10:26.133Z,12.23
2019-05-03T04:12:55.937Z,10.93
2019-05-03T04:15:26.371Z,10.60
2019-05-03T04:18:08.086Z,10.50
2019-05-03T04:20:37.869Z,10.43
2019-05-03T04:23:06.316Z,10.80
2019-05-03T04:25:35.774Z,9.70
2019-05-03T04:28:05.741Z,11.00
2019-05-03T04:30:36.452Z,10.63
2019-05-03T04:33:06.061Z,10.27
2019-05-03T04:35:36.359Z,11.37
2019-05-03T04:38:05.481Z,10.80
2019-05-03T04:40:35.738Z,11.10
2019-05-03T04:43:06.018Z,12.23
2019-05-03T04:45:36.742Z,19.30
2019-05-03T04:48:05.973Z,14.07
2019-05-03T04:50:36.702Z,12.40
2019-05-03T04:53:05.695Z,13.20
2019-05-03T04:55:36.384Z,12.00
2019-05-03T04:58:04.887Z,11.90
2019-05-03T05:00:35.580Z,12.13
2019-05-03T05:03:05.646Z,12.13
2019-05-03T05:05:33.248Z,12.37
2019-05-03T05:08:01.529Z,13.23
2019-05-03T05:10:29.846Z,13.17
2019-05-03T05:12:58.202Z,13.30
2019-05-03T05:15:26.850Z,13.80
2019-05-03T05:17:56.837Z,13.30
2019-05-03T05:20:45.432Z,12.97
2019-05-03T05:23:14.800Z,12.40
2019-05-03T05:25:44.776Z,13.13
2019-05-03T05:28:25.010Z,12.57
2019-05-03T05:30:54.621Z,13.13
2019-05-03T05:33:25.011Z,11.07
2019-05-03T05:35:54.718Z,11.87
2019-05-03T05:38:25.299Z,11.53
2019-05-03T05:40:55.330Z,11.13
2019-05-03T05:43:25.345Z,11.70
2019-05-03T05:45:55.200Z,11.90
2019-05-03T05:48:34.920Z,12.07
2019-05-03T05:51:04.445Z,11.70
2019-05-03T05:53:32.850Z,12.97
2019-05-03T05:56:20.620Z,12.53
2019-05-03T05:58:55.259Z,12.30
2019-05-03T06:01:27.990Z,10.23
2019-05-03T06:03:56.263Z,5.30
2019-05-03T06:06:28.872Z,5.50
2019-05-03T06:09:09.034Z,4.87
2019-05-03T06:11:45.058Z,4.93
2019-05-03T06:14:15.308Z,4.97
2019-05-03T06:17:01.362Z,4.00
2019-05-03T06:19:34.523Z,4.57
2019-05-03T06:22:15.261Z,4.17
2019-05-03T06:24:45.320Z,3.63
2019-05-03T06:27:30.492Z,4.17
2019-05-03T06:30:00.416Z,4.23
2019-05-03T06:32:34.494Z,3.90
2019-05-03T06:35:04.818Z,3.77
2019-05-03T06:37:40.435Z,4.10
2019-05-03T06:40:08.879Z,3.60
2019-05-03T06:42:37.181Z,3.40
2019-05-03T06:45:10.449Z,3.70
2019-05-03T06:47:40.219Z,3.90
2019-05-03T06:50:08.081Z,3.87
2019-05-03T06:52:36.396Z,3.70
2019-05-03T06:55:10.490Z,3.97
2019-05-03T06:57:40.158Z,4.00
2019-05-03T07:00:10.379Z,3.77
2019-05-03T07:02:44.725Z,3.83
2019-05-03T07:05:15.312Z,3.27
2019-05-03T07:07:54.696Z,3.27
2019-05-03T07:10:27.228Z,3.13
2019-05-03T07:12:58.343Z,2.70
2019-05-03T07:15:26.903Z,2.80
2019-05-03T07:17:55.764Z,3.27
2019-05-03T07:20:25.452Z,2.40
2019-05-03T07:22:55.721Z,3.17
2019-05-03T07:25:25.638Z,3.27
2019-05-03T07:27:55.602Z,2.80
2019-05-03T07:30:24.780Z,3.20
2019-05-03T07:32:54.861Z,2.73
2019-05-03T07:35:25.093Z,3.00
2019-05-03T07:37:55.158Z,2.93
2019-05-03T07:40:25.311Z,2.80
2019-05-03T07:42:55.294Z,3.30
2019-05-03T07:45:25.202Z,3.10
2019-05-03T07:47:55.644Z,3.40
2019-05-03T07:50:25.572Z,3.60
2019-05-03T07:52:55.420Z,3.70
2019-05-03T07:55:25.045Z,2.90
2019-05-03T07:58:00.948Z,3.13
2019-05-03T08:00:29.261Z,3.03
2019-05-03T08:02:57.517Z,3.37
2019-05-03T08:05:25.856Z,3.60
2019-05-03T08:07:55.368Z,3.40
2019-05-03T08:10:25.639Z,3.57
2019-05-03T08:12:54.400Z,3.47
2019-05-03T08:15:24.563Z,4.07
2019-05-03T08:17:52.962Z,3.27
2019-05-03T08:20:21.292Z,3.77
2019-05-03T08:22:49.639Z,3.27
2019-05-03T08:25:17.963Z,3.10
2019-05-03T08:27:46.287Z,3.23
2019-05-03T08:30:16.362Z,3.20
2019-05-03T08:32:49.032Z,3.63
2019-05-03T08:35:24.875Z,3.30
2019-05-03T08:37:54.881Z,3.47
2019-05-03T08:40:24.950Z,3.30
2019-05-03T08:42:54.959Z,3.10
2019-05-03T08:45:25.474Z,2.80
2019-05-03T08:47:55.359Z,3.27
2019-05-03T08:50:25.707Z,2.90
2019-05-03T08:52:55.734Z,3.30
2019-05-03T08:55:24.952Z,3.37
2019-05-03T08:57:55.133Z,3.87
2019-05-03T09:00:25.221Z,3.97
2019-05-03T09:02:54.901Z,3.13
2019-05-03T09:05:25.098Z,2.80
2019-05-03T09:07:54.896Z,3.10
2019-05-03T09:10:25.083Z,2.30
2019-05-03T09:13:07.032Z,2.43
2019-05-03T09:15:36.290Z,2.00
2019-05-03T09:18:05.205Z,2.10
2019-05-03T09:20:35.420Z,2.03
2019-05-03T09:23:05.311Z,2.00
2019-05-03T09:25:35.540Z,2.60
2019-05-03T09:28:04.805Z,2.20
2019-05-03T09:30:35.550Z,1.90
2019-05-03T09:33:06.025Z,2.00
2019-05-03T09:35:35.887Z,2.60
2019-05-03T09:38:05.509Z,2.10
2019-05-03T09:40:35.229Z,1.77
2019-05-03T09:43:04.557Z,1.80
2019-05-03T09:45:35.124Z,2.00
2019-05-03T09:48:05.476Z,2.20
2019-05-03T09:50:35.675Z,1.93
2019-05-03T09:53:05.470Z,2.57
2019-05-03T09:55:35.614Z,1.70
2019-05-03T09:58:05.575Z,2.30
2019-05-03T10:00:34.027Z,2.43
2019-05-03T10:03:02.438Z,2.10
2019-05-03T10:05:30.763Z,2.27
2019-05-03T10:07:59.710Z,2.40
2019-05-03T10:10:29.680Z,2.13
2019-05-03T10:12:58.004Z,2.20
2019-05-03T10:15:39.102Z,2.20
2019-05-03T10:18:11.080Z,2.33
2019-05-03T10:20:39.076Z,2.60
2019-05-03T10:23:17.804Z,2.20
2019-05-03T10:25:46.212Z,2.60
2019-05-03T10:28:15.280Z,2.40
2019-05-03T10:30:45.060Z,2.30
2019-05-03T10:33:15.639Z,2.50
2019-05-03T10:35:45.134Z,2.33
2019-05-03T10:38:15.122Z,2.20
2019-05-03T10:40:45.199Z,2.43
2019-05-03T10:43:13.730Z,2.20
2019-05-03T10:45:42.143Z,2.30
2019-05-03T10:48:10.457Z,2.17
2019-05-03T10:50:38.851Z,2.43
2019-05-03T10:53:08.808Z,2.50
2019-05-03T10:55:37.153Z,2.30
2019-05-03T10:58:07.107Z,2.33
2019-05-03T11:00:44.566Z,2.50
2019-05-03T11:03:10.217Z,2.43
2019-05-03T11:05:38.518Z,2.33
2019-05-03T11:08:06.875Z,2.90
2019-05-03T11:10:35.165Z,3.00
2019-05-03T11:13:05.795Z,2.60
2019-05-03T11:15:35.063Z,2.73
2019-05-03T11:18:05.445Z,2.90
2019-05-03T11:20:35.106Z,2.70
2019-05-03T11:23:05.932Z,3.13
2019-05-03T11:25:35.113Z,2.50
2019-05-03T11:28:05.736Z,2.80
2019-05-03T11:30:35.650Z,3.33
2019-05-03T11:33:05.770Z,3.07
2019-05-03T11:35:41.900Z,2.47
2019-05-03T11:38:11.942Z,3.10
2019-05-03T11:40:40.236Z,2.43
2019-05-03T11:43:08.565Z,3.30
2019-05-03T11:45:36.913Z,2.63
2019-05-03T11:48:05.339Z,2.83
2019-05-03T11:50:34.742Z,2.57
2019-05-03T11:53:05.124Z,2.67
2019-05-03T11:55:35.210Z,2.67
2019-05-03T11:58:05.648Z,2.60
2019-05-03T12:00:35.728Z,3.30
2019-05-03T12:03:05.881Z,2.70
2019-05-03T12:05:34.877Z,2.43
2019-05-03T12:08:05.301Z,2.80
2019-05-03T12:10:50.927Z,2.90
2019-05-03T12:13:17.115Z,2.70
2019-05-03T12:15:45.586Z,2.93
2019-05-03T12:18:16.362Z,2.87
2019-05-03T12:20:46.627Z,2.67
2019-05-03T12:23:16.098Z,3.00
2019-05-03T12:25:45.837Z,2.93
2019-05-03T12:28:16.169Z,2.60
2019-05-03T12:30:44.891Z,2.70
2019-05-03T12:33:15.320Z,2.93
2019-05-03T12:35:43.361Z,2.53
2019-05-03T12:38:11.733Z,2.93
2019-05-03T12:40:40.007Z,2.70
2019-05-03T12:43:08.300Z,2.70
2019-05-03T12:45:36.585Z,2.60
2019-05-03T12:48:05.332Z,2.30
2019-05-03T12:50:34.653Z,2.60
2019-05-03T12:53:04.780Z,2.80
2019-05-03T12:55:35.339Z,3.10
2019-05-03T12:58:05.855Z,3.00
2019-05-03T13:00:50.006Z,3.13
2019-05-03T13:03:24.542Z,3.40
2019-05-03T13:05:52.366Z,2.97
2019-05-03T13:08:37.995Z,2.90
2019-05-03T13:11:06.558Z,3.07
2019-05-03T13:13:36.055Z,2.93
2019-05-03T13:16:05.033Z,2.97
2019-05-03T13:18:35.186Z,3.43
2019-05-03T13:21:05.820Z,3.10
2019-05-03T13:23:35.325Z,3.30
2019-05-03T13:26:05.611Z,3.13
2019-05-03T13:28:34.265Z,3.27
2019-05-03T13:31:02.546Z,3.30
2019-05-03T13:33:30.847Z,3.13
2019-05-03T13:35:59.118Z,2.57
2019-05-03T13:38:27.412Z,2.93
2019-05-03T13:40:55.951Z,3.30
2019-05-03T13:43:24.256Z,2.80
2019-05-03T13:45:52.531Z,2.77
2019-05-03T13:48:21.193Z,3.00
2019-05-03T13:50:50.841Z,2.97
2019-05-03T13:53:19.124Z,2.87
2019-05-03T13:55:47.419Z,3.20
2019-05-03T13:58:15.703Z,3.37
2019-05-03T14:00:45.371Z,3.17
2019-05-03T14:03:15.304Z,3.00
2019-05-03T14:05:44.558Z,3.33
2019-05-03T14:08:15.396Z,3.33
2019-05-03T14:10:45.251Z,3.43
2019-05-03T14:13:12.983Z,3.17
2019-05-03T14:15:41.583Z,3.30
2019-05-03T14:18:09.948Z,3.23
2019-05-03T14:20:48.939Z,3.50
2019-05-03T14:23:17.222Z,3.33
2019-05-03T14:25:45.512Z,3.20
2019-05-03T14:28:14.563Z,3.17
2019-05-03T14:30:45.429Z,3.77
2019-05-03T14:33:13.848Z,3.50
2019-05-03T14:35:42.124Z,14.87
2019-05-03T14:38:10.429Z,3.77
2019-05-03T14:40:38.732Z,7.87
2019-05-03T14:43:07.031Z,3.23
2019-05-03T14:45:35.306Z,3.43
2019-05-03T14:48:05.915Z,3.57
2019-05-03T14:50:35.009Z,3.17
2019-05-03T14:53:05.401Z,3.53
2019-05-03T14:55:35.134Z,3.70
2019-05-03T14:58:05.056Z,3.13
2019-05-03T15:00:51.383Z,3.40
2019-05-03T15:03:21.384Z,3.57
2019-05-03T15:05:58.303Z,3.40
2019-05-03T15:08:25.642Z,3.60
2019-05-03T15:10:54.679Z,3.80
2019-05-03T15:13:25.156Z,3.60
2019-05-03T15:15:54.688Z,3.83
2019-05-03T15:18:25.382Z,3.57
2019-05-03T15:20:54.950Z,3.33
2019-05-03T15:23:25.209Z,3.70
2019-05-03T15:25:54.539Z,3.80
2019-05-03T15:28:24.861Z,3.77
2019-05-03T15:30:55.095Z,3.50
2019-05-03T15:33:23.136Z,3.53
2019-05-03T15:35:51.441Z,3.50
2019-05-03T15:38:19.737Z,4.03
2019-05-03T15:40:48.024Z,3.90
2019-05-03T15:43:28.907Z,3.67
2019-05-03T15:46:01.821Z,4.13
2019-05-03T15:48:31.782Z,3.90
2019-05-03T15:51:00.094Z,3.87
2019-05-03T15:53:28.441Z,4.27
2019-05-03T15:55:56.743Z,4.00
2019-05-03T15:58:25.035Z,4.20
2019-05-03T16:00:55.156Z,4.40
2019-05-03T16:03:25.170Z,3.70
2019-05-03T16:05:55.447Z,3.67
2019-05-03T16:08:24.804Z,3.80
2019-05-03T16:10:54.938Z,3.97
2019-05-03T16:13:25.169Z,3.83
2019-05-03T16:15:55.247Z,4.13
2019-05-03T16:18:24.519Z,8.43
2019-05-03T16:20:54.638Z,4.00
2019-05-03T16:23:25.024Z,4.07
2019-05-03T16:25:54.398Z,7.33
2019-05-03T16:28:24.882Z,4.90
2019-05-03T16:30:55.579Z,4.10
2019-05-03T16:33:27.650Z,3.70
2019-05-03T16:35:54.878Z,3.97
2019-05-03T16:38:24.882Z,4.87
2019-05-03T16:40:54.516Z,106.60
2019-05-03T16:43:25.512Z,4.10
2019-05-03T16:45:55.023Z,4.20
2019-05-03T16:48:24.717Z,3.80
2019-05-03T16:50:53.127Z,4.30
2019-05-03T16:53:21.409Z,4.00
2019-05-03T16:55:49.722Z,3.70
2019-05-03T16:58:18.145Z,4.10
2019-05-03T17:00:46.509Z,4.70
2019-05-03T17:03:17.206Z,5.20
2019-05-03T17:06:01.116Z,21.00
2019-05-03T17:08:46.167Z,4.20
2019-05-03T17:11:18.851Z,4.60
2019-05-03T17:13:48.043Z,8.00
2019-05-03T17:16:16.330Z,4.40
2019-05-03T17:18:44.779Z,3.77
2019-05-03T17:21:14.592Z,4.50
2019-05-03T17:23:44.661Z,4.00
2019-05-03T17:26:14.923Z,4.47
2019-05-03T17:28:44.733Z,4.40
2019-05-03T17:31:13.190Z,4.23
2019-05-03T17:33:50.649Z,4.07
2019-05-03T17:36:11.490Z,4.33
2019-05-03T17:38:40.131Z,4.60
2019-05-03T17:41:14.799Z,4.47
2019-05-03T17:43:45.174Z,4.43
2019-05-03T17:46:14.988Z,4.07
2019-05-03T17:48:45.139Z,4.50
2019-05-03T17:51:15.221Z,3.87
2019-05-03T17:53:57.372Z,4.77
2019-05-03T17:56:27.300Z,4.27
2019-05-03T17:59:00.027Z,4.67
2019-05-03T18:01:35.697Z,4.47
2019-05-03T18:04:24.813Z,4.93
2019-05-03T18:07:00.749Z,4.57
2019-05-03T18:09:36.179Z,5.40
2019-05-03T18:12:07.170Z,4.73
2019-05-03T18:14:35.455Z,5.87
2019-05-03T18:17:05.788Z,5.30
2019-05-03T18:19:34.341Z,4.90
2019-05-03T18:22:05.048Z,5.57
2019-05-03T18:24:32.873Z,5.90
2019-05-03T18:27:01.175Z,6.10
2019-05-03T18:29:29.517Z,5.57
2019-05-03T18:31:57.804Z,6.17
2019-05-03T18:34:26.250Z,5.90
2019-05-03T18:36:54.528Z,6.00
2019-05-03T18:39:22.904Z,5.30
2019-05-03T18:41:51.177Z,5.17
2019-05-03T18:44:37.403Z,5.10
2019-05-03T18:47:10.366Z,5.00
2019-05-03T18:49:38.668Z,4.57
2019-05-03T18:52:06.943Z,4.00
2019-05-03T18:54:36.769Z,4.37
2019-05-03T18:57:05.226Z,3.93
2019-05-03T18:59:33.510Z,3.93
2019-05-03T19:02:01.851Z,3.87
2019-05-03T19:04:35.123Z,4.30
2019-05-03T19:07:04.633Z,4.40
2019-05-03T19:09:34.815Z,4.30
2019-05-03T19:12:04.916Z,4.07
2019-05-03T19:14:33.163Z,4.00
2019-05-03T19:17:08.856Z,4.10
2019-05-03T19:19:38.848Z,4.30
2019-05-03T19:22:07.120Z,4.60
2019-05-03T19:24:35.420Z,4.60
2019-05-03T19:27:05.013Z,4.27
2019-05-03T19:29:34.368Z,4.80
2019-05-03T19:32:04.479Z,4.80
2019-05-03T19:34:46.795Z,5.07
2019-05-03T19:37:02.905Z,4.60
2019-05-03T19:39:31.203Z,4.17
2019-05-03T19:41:59.488Z,4.63
2019-05-03T19:44:27.791Z,4.87
2019-05-03T19:46:56.074Z,4.60
2019-05-03T19:49:24.596Z,4.90
2019-05-03T19:51:54.574Z,5.00
2019-05-03T19:54:22.829Z,4.43
2019-05-03T19:56:51.205Z,4.47
2019-05-03T19:59:37.422Z,4.40
2019-05-03T20:02:07.484Z,4.90
2019-05-03T20:04:58.551Z,4.70
2019-05-03T20:07:25.343Z,5.50
2019-05-03T20:09:54.361Z,4.70
2019-05-03T20:12:24.538Z,5.03
2019-05-03T20:14:54.605Z,5.33
2019-05-03T20:17:22.984Z,4.97
2019-05-03T20:19:54.479Z,4.80
2019-05-03T20:22:24.193Z,5.57
2019-05-03T20:24:52.733Z,4.83
2019-05-03T20:27:21.023Z,5.50
2019-05-03T20:29:49.340Z,5.47
2019-05-03T20:32:17.632Z,5.47
2019-05-03T20:34:45.931Z,6.77
2019-05-03T20:37:14.706Z,5.90
2019-05-03T20:39:43.236Z,5.00
2019-05-03T20:42:15.418Z,5.50
2019-05-03T20:44:54.494Z,6.10
2019-05-03T20:47:25.297Z,6.07
2019-05-03T20:50:11.195Z,5.87
2019-05-03T20:52:39.802Z,5.87
2019-05-03T20:55:08.154Z,6.27
2019-05-03T20:57:36.440Z,6.80
2019-05-03T21:00:06.961Z,6.40
2019-05-03T21:02:35.356Z,6.47
2019-05-03T21:05:06.655Z,6.80
2019-05-03T21:07:35.201Z,7.77
2019-05-03T21:10:06.102Z,9.00
2019-05-03T21:12:34.730Z,8.43
2019-05-03T21:15:05.694Z,7.87
2019-05-03T21:17:45.106Z,8.20
2019-05-03T21:20:15.521Z,7.63
2019-05-03T21:22:45.244Z,8.20
2019-05-03T21:25:20.193Z,8.90
2019-05-03T21:27:48.494Z,8.23
2019-05-03T21:30:16.918Z,8.23
2019-05-03T21:32:45.227Z,8.43
2019-05-03T21:35:14.784Z,8.03
2019-05-03T21:37:45.272Z,8.30
2019-05-03T21:40:15.513Z,8.43
2019-05-03T21:42:45.168Z,9.03
2019-05-03T21:45:15.276Z,9.03
2019-05-03T21:47:54.749Z,8.67
2019-05-03T21:50:24.995Z,9.50
2019-05-03T21:52:57.563Z,9.13
2019-05-03T21:55:25.115Z,9.03
2019-05-03T21:57:55.174Z,10.63
2019-05-03T22:00:25.305Z,10.57
2019-05-03T22:02:54.640Z,10.53
2019-05-03T22:05:23.618Z,10.17
2019-05-03T22:07:51.974Z,11.67
2019-05-03T22:10:20.282Z,10.67
2019-05-03T22:12:48.575Z,11.17
2019-05-03T22:15:34.815Z,11.80
2019-05-03T22:18:15.185Z,11.23
2019-05-03T22:20:48.313Z,11.47
2019-05-03T22:23:18.227Z,11.93
2019-05-03T22:25:46.530Z,13.37
2019-05-03T22:28:15.590Z,13.50
2019-05-03T22:30:45.355Z,12.87
2019-05-03T22:33:14.535Z,13.40
2019-05-03T22:35:44.524Z,13.63
2019-05-03T22:38:12.932Z,13.33
2019-05-03T22:40:41.220Z,13.70
2019-05-03T22:43:09.891Z,13.70
2019-05-03T22:45:38.191Z,14.60
2019-05-03T22:48:06.501Z,14.97
2019-05-03T22:50:34.791Z,14.60
2019-05-03T22:53:03.125Z,13.70
2019-05-03T22:55:31.391Z,15.23
2019-05-03T22:57:59.703Z,15.43
2019-05-03T23:00:28.167Z,15.80
2019-05-03T23:02:56.469Z,15.27
2019-05-03T23:05:24.814Z,15.57
2019-05-03T23:07:55.102Z,14.77
2019-05-03T23:10:23.136Z,15.47
2019-05-03T23:12:51.419Z,15.60
2019-05-03T23:15:19.721Z,16.53
2019-05-03T23:17:48.010Z,16.10
2019-05-03T23:20:26.930Z,14.93
2019-05-03T23:22:55.241Z,15.53
2019-05-03T23:25:25.024Z,17.03
2019-05-03T23:27:55.016Z,17.57
2019-05-03T23:30:24.790Z,16.70
2019-05-03T23:32:54.715Z,17.80
2019-05-03T23:35:24.652Z,16.67
2019-05-03T23:37:54.327Z,15.33
2019-05-03T23:40:22.758Z,14.63
2019-05-03T23:42:51.041Z,12.80
2019-05-03T23:45:19.326Z,13.00
2019-05-03T23:47:48.899Z,11.80
2019-05-03T23:50:21.437Z,11.83
2019-05-03T23:52:49.763Z,11.27
2019-05-03T23:55:22.757Z,11.27
2019-05-03T23:57:51.033Z,9.97
